Time,TemperatureF,DewpointF,PressureIn,WindDirection,WindDirectionDegrees,WindSpeedMPH,WindSpeedGustMPH,Humidity,HourlyPrecipIn,Conditions,Clouds,dailyrainin,SolarRadiationWatts/m^2,SoftwareType,DateUTC
2015-01-28 00:23:00,41.0,30.0,-100.00,SSE,168,6.0,10.0,65,0.00,,,0.00,0.000000,,2015-01-28 07:23:00,
2015-01-28 00:32:00,41.0,30.0,-100.00,SSE,168,6.0,10.0,65,0.00,,,0.00,0.000000,,2015-01-28 07:32:00,
2015-01-28 00:42:00,41.0,30.0,-100.00,SSE,168,6.0,10.0,65,0.00,,,0.00,0.000000,,2015-01-28 07:42:00,
2015-01-28 00:51:00,41.0,31.0,-100.00,SSW,192,5.0,9.0,66,0.00,,,0.00,0.000000,,2015-01-28 07:51:00,
2015-01-28 01:22:00,41.0,31.0,-100.00,SSW,192,5.0,9.0,66,0.00,,,0.00,0.000000,,2015-01-28 08:22:00,
2015-01-28 01:32:00,41.0,31.0,-100.00,SSW,192,5.0,9.0,66,0.00,,,0.00,0.000000,,2015-01-28 08:32:00,
2015-01-28 01:42:00,41.0,31.0,-100.00,SSW,192,5.0,9.0,66,0.00,,,0.00,0.000000,,2015-01-28 08:42:00,
2015-01-28 01:51:00,42.0,30.0,-100.00,South,170,7.0,9.0,63,0.00,,,0.00,0.000000,,2015-01-28 08:51:00,
2015-01-28 02:22:00,42.0,30.0,-100.00,South,170,7.0,9.0,63,0.00,,,0.00,0.000000,,2015-01-28 09:22:00,
2015-01-28 02:33:00,42.0,30.0,-100.00,South,170,7.0,9.0,63,0.00,,,0.00,0.000000,,2015-01-28 09:33:00,
2015-01-28 02:44:00,42.0,30.0,-100.00,South,170,7.0,9.0,63,0.00,,,0.00,0.000000,,2015-01-28 09:44:00,
2015-01-28 02:51:00,41.0,31.0,-100.00,South,172,7.0,10.0,67,0.00,,,0.00,0.000000,,2015-01-28 09:51:00,
2015-01-28 03:23:00,41.0,31.0,-100.00,South,172,7.0,10.0,67,0.00,,,0.00,0.000000,,2015-01-28 10:23:00,
2015-01-28 03:33:00,41.0,31.0,-100.00,South,172,7.0,10.0,67,0.00,,,0.00,0.000000,,2015-01-28 10:33:00,
2015-01-28 03:43:00,41.0,31.0,-100.00,South,172,7.0,10.0,67,0.00,,,0.00,0.000000,,2015-01-28 10:43:00,
2015-01-28 03:51:00,41.0,31.0,-100.00,South,188,5.0,9.0,66,0.00,,,0.00,0.000000,,2015-01-28 10:51:00,
2015-01-28 04:22:00,41.0,31.0,-100.00,South,188,5.0,9.0,66,0.00,,,0.00,0.000000,,2015-01-28 11:22:00,
2015-01-28 04:33:00,41.0,31.0,-100.00,South,188,5.0,9.0,66,0.00,,,0.00,0.000000,,2015-01-28 11:33:00,
2015-01-28 04:42:00,41.0,31.0,-100.00,South,188,5.0,9.0,66,0.00,,,0.00,0.000000,,2015-01-28 11:42:00,
2015-01-28 04:51:00,41.0,29.0,-100.00,SSE,166,7.0,10.0,63,0.00,,,0.00,0.000000,,2015-01-28 11:51:00,
2015-01-28 05:22:00,41.0,29.0,-100.00,SSE,166,7.0,10.0,63,0.00,,,0.00,0.000000,,2015-01-28 12:22:00,
2015-01-28 05:32:00,41.0,29.0,-100.00,SSE,166,7.0,10.0,63,0.00,,,0.00,0.000000,,2015-01-28 12:32:00,
2015-01-28 05:42:00,41.0,29.0,-100.00,SSE,166,7.0,10.0,63,0.00,,,0.00,0.000000,,2015-01-28 12:42:00,
2015-01-28 05:51:00,42.0,29.0,-100.00,SE,133,3.0,9.0,60,0.00,,,0.00,0.000000,,2015-01-28 12:51:00,
2015-01-28 06:22:00,42.0,29.0,-100.00,SE,133,3.0,9.0,60,0.00,,,0.00,0.000000,,2015-01-28 13:22:00,
2015-01-28 06:32:00,42.0,29.0,-100.00,SE,133,3.0,9.0,60,0.00,,,0.00,0.000000,,2015-01-28 13:32:00,
2015-01-28 06:42:00,42.0,29.0,-100.00,SE,133,3.0,9.0,60,0.00,,,0.00,0.000000,,2015-01-28 13:42:00,
2015-01-28 06:51:00,44.0,30.0,-100.00,WNW,300,2.0,5.0,58,0.00,,,0.00,0.000000,,2015-01-28 13:51:00,
2015-01-28 07:22:00,44.0,30.0,-100.00,WNW,300,2.0,5.0,58,0.00,,,0.00,0.000000,,2015-01-28 14:22:00,
2015-01-28 07:32:00,44.0,30.0,-100.00,WNW,300,2.0,5.0,58,0.00,,,0.00,0.000000,,2015-01-28 14:32:00,
2015-01-28 07:42:00,44.0,30.0,-100.00,WNW,300,2.0,5.0,58,0.00,,,0.00,0.000000,,2015-01-28 14:42:00,
2015-01-28 07:51:00,43.0,30.0,-100.00,NNW,332,7.0,11.0,60,0.00,,,0.00,1.000000,,2015-01-28 14:51:00,
2015-01-28 08:22:00,43.0,30.0,-100.00,NNW,332,7.0,11.0,60,0.00,,,0.00,1.000000,,2015-01-28 15:22:00,
2015-01-28 08:34:00,43.0,30.0,-100.00,NNW,332,7.0,11.0,60,0.00,,,0.00,1.000000,,2015-01-28 15:34:00,
2015-01-28 08:44:00,43.0,30.0,-100.00,NNW,332,7.0,11.0,60,0.00,,,0.00,1.000000,,2015-01-28 15:44:00,
2015-01-28 09:23:00,46.0,33.0,-100.00,NW,315,7.0,15.0,60,0.00,,,0.00,47.000000,,2015-01-28 16:23:00,
2015-01-28 09:33:00,46.0,33.0,-100.00,NW,315,7.0,15.0,60,0.00,,,0.00,47.000000,,2015-01-28 16:33:00,
2015-01-28 09:44:00,46.0,33.0,-100.00,NW,315,7.0,15.0,60,0.00,,,0.00,47.000000,,2015-01-28 16:44:00,